createdAt,value
2019-03-13T00:01:08.473Z,7.30
2019-03-13T00:03:09.953Z,7.30
2019-03-13T00:05:11.513Z,7.30
2019-03-13T00:07:12.904Z,7.30
2019-03-13T00:09:14.250Z,7.40
2019-03-13T00:11:15.809Z,7.40
2019-03-13T00:13:17.583Z,7.40
2019-03-13T00:15:19.050Z,7.30
2019-03-13T00:17:20.400Z,7.30
2019-03-13T00:19:21.863Z,7.30
2019-03-13T00:21:23.211Z,7.30
2019-03-13T00:23:24.566Z,7.30
2019-03-13T00:25:25.980Z,7.30
2019-03-13T00:27:27.447Z,7.30
2019-03-13T00:29:28.806Z,7.30
2019-03-13T00:31:30.389Z,7.30
2019-03-13T00:33:31.836Z,7.30
2019-03-13T00:35:33.212Z,7.40
2019-03-13T00:37:34.629Z,7.40
2019-03-13T00:39:36.003Z,7.40
2019-03-13T00:41:37.528Z,7.40
2019-03-13T00:43:38.933Z,7.40
2019-03-13T00:45:40.299Z,7.40
2019-03-13T00:47:41.660Z,7.40
2019-03-13T00:49:43.058Z,7.40
2019-03-13T00:51:45.554Z,7.30
2019-03-13T00:53:46.908Z,7.40
2019-03-13T00:55:48.505Z,7.40
2019-03-13T00:57:49.966Z,7.40
2019-03-13T00:59:51.324Z,7.40
2019-03-13T01:02:11.130Z,7.40
2019-03-13T01:04:14.428Z,7.30
2019-03-13T01:06:17.700Z,7.30
2019-03-13T01:08:19.168Z,7.20
2019-03-13T01:10:20.537Z,7.20
2019-03-13T01:12:22.015Z,7.20
2019-03-13T01:14:23.419Z,7.20
2019-03-13T01:16:24.787Z,7.30
2019-03-13T01:18:26.143Z,7.30
2019-03-13T01:20:27.729Z,7.30
2019-03-13T01:22:29.098Z,7.30
2019-03-13T01:24:30.918Z,7.40
2019-03-13T01:26:32.327Z,7.40
2019-03-13T01:28:33.695Z,7.40
2019-03-13T01:30:39.669Z,7.50
2019-03-13T01:32:42.943Z,7.50
2019-03-13T01:34:46.333Z,7.60
2019-03-13T01:37:07.970Z,7.70
2019-03-13T01:39:09.338Z,7.60
2019-03-13T01:41:10.707Z,7.50
2019-03-13T01:43:12.171Z,7.50
2019-03-13T01:45:15.557Z,7.50
2019-03-13T01:47:17.022Z,7.50
2019-03-13T01:49:18.461Z,7.50
2019-03-13T01:51:19.817Z,7.50
2019-03-13T01:53:21.182Z,7.50
2019-03-13T01:55:22.589Z,7.50
2019-03-13T01:57:23.958Z,7.40
2019-03-13T01:59:25.407Z,7.40
2019-03-13T02:01:26.893Z,7.40
2019-03-13T02:03:28.255Z,7.30
2019-03-13T02:05:29.622Z,7.20
2019-03-13T02:07:31.051Z,7.20
2019-03-13T02:09:32.710Z,7.10
2019-03-13T02:11:34.668Z,7.00
2019-03-13T02:13:36.027Z,7.00
2019-03-13T02:15:37.443Z,7.00
2019-03-13T02:17:38.800Z,6.90
2019-03-13T02:19:40.166Z,6.90
2019-03-13T02:21:41.584Z,6.80
2019-03-13T02:23:42.945Z,6.70
2019-03-13T02:25:44.340Z,6.60
2019-03-13T02:27:45.764Z,6.60
2019-03-13T02:29:47.121Z,6.60
2019-03-13T02:31:48.481Z,6.60
2019-03-13T02:33:49.878Z,6.50
2019-03-13T02:35:51.247Z,6.50
2019-03-13T02:37:52.611Z,6.40
2019-03-13T02:39:54.027Z,6.40
2019-03-13T02:41:55.393Z,6.40
2019-03-13T02:43:56.742Z,6.40
2019-03-13T02:45:58.270Z,6.40
2019-03-13T02:47:59.639Z,6.40
2019-03-13T02:50:01.014Z,6.40
2019-03-13T02:52:02.419Z,6.40
2019-03-13T02:54:03.855Z,6.40
2019-03-13T02:56:05.210Z,6.40
2019-03-13T02:58:06.577Z,6.40
2019-03-13T03:00:12.786Z,6.50
2019-03-13T03:02:16.118Z,6.50
2019-03-13T03:04:17.471Z,6.50
2019-03-13T03:06:18.908Z,6.60
2019-03-13T03:08:20.315Z,6.60
2019-03-13T03:10:21.755Z,6.70
2019-03-13T03:12:23.116Z,6.70
2019-03-13T03:14:24.478Z,6.80
2019-03-13T03:16:25.902Z,6.90
2019-03-13T03:18:27.246Z,7.00
2019-03-13T03:20:28.686Z,7.10
2019-03-13T03:22:30.336Z,7.20
2019-03-13T03:24:31.676Z,7.10
2019-03-13T03:26:33.030Z,7.00
2019-03-13T03:28:34.436Z,6.80
2019-03-13T03:30:35.893Z,6.60
2019-03-13T03:32:37.226Z,6.40
2019-03-13T03:34:38.842Z,6.40
2019-03-13T03:36:40.198Z,6.30
2019-03-13T03:38:41.541Z,6.20
2019-03-13T03:40:43.302Z,6.20
2019-03-13T03:42:44.649Z,6.10
2019-03-13T03:44:45.997Z,6.10
2019-03-13T03:46:47.445Z,6.00
2019-03-13T03:48:48.743Z,6.00
2019-03-13T03:50:50.086Z,5.90
2019-03-13T03:52:51.547Z,5.80
2019-03-13T03:54:52.890Z,5.80
2019-03-13T03:56:54.277Z,5.80
2019-03-13T03:58:55.676Z,5.80
2019-03-13T04:00:57.121Z,5.80
2019-03-13T04:02:58.533Z,5.80
2019-03-13T04:04:59.971Z,5.80
2019-03-13T04:07:01.459Z,5.80
2019-03-13T04:09:04.781Z,5.80
2019-03-13T04:11:06.122Z,5.80
2019-03-13T04:13:09.377Z,5.70
2019-03-13T04:15:14.955Z,5.70
2019-03-13T04:17:18.177Z,5.70
2019-03-13T04:19:19.717Z,5.60
2019-03-13T04:21:21.109Z,5.60
2019-03-13T04:23:22.465Z,5.50
2019-03-13T04:25:29.377Z,5.50
2019-03-13T04:27:30.721Z,5.40
2019-03-13T04:29:32.183Z,5.40
2019-03-13T04:31:35.566Z,5.30
2019-03-13T04:33:36.927Z,5.40
2019-03-13T04:35:38.337Z,5.40
2019-03-13T04:37:39.676Z,5.40
2019-03-13T04:39:41.023Z,5.40
2019-03-13T04:41:42.438Z,5.40
2019-03-13T04:43:43.779Z,5.40
2019-03-13T04:45:45.215Z,5.40
2019-03-13T04:47:46.603Z,5.40
2019-03-13T04:49:47.942Z,5.30
2019-03-13T04:51:49.284Z,5.40
2019-03-13T04:53:50.672Z,5.40
2019-03-13T04:55:52.709Z,5.40
2019-03-13T04:57:54.205Z,5.30
2019-03-13T04:59:55.670Z,5.30
2019-03-13T05:01:57.046Z,5.20
2019-03-13T05:03:58.376Z,5.20
2019-03-13T05:06:00.714Z,5.10
2019-03-13T05:08:02.097Z,5.10
2019-03-13T05:10:07.872Z,5.00
2019-03-13T05:12:09.228Z,4.90
2019-03-13T05:14:10.576Z,4.90
2019-03-13T05:16:11.929Z,4.90
2019-03-13T05:18:13.318Z,4.80
2019-03-13T05:20:14.667Z,4.80
2019-03-13T05:22:16.009Z,4.80
2019-03-13T05:24:17.393Z,4.70
2019-03-13T05:26:18.745Z,4.70
2019-03-13T05:28:20.112Z,4.70
2019-03-13T05:30:21.519Z,4.60
2019-03-13T05:32:22.869Z,4.60
2019-03-13T05:34:24.247Z,4.50
2019-03-13T05:36:25.630Z,4.50
2019-03-13T05:38:27.204Z,4.50
2019-03-13T05:40:28.563Z,4.50
2019-03-13T05:42:29.986Z,4.50
2019-03-13T05:44:31.519Z,4.50
2019-03-13T05:46:32.864Z,4.40
2019-03-13T05:48:34.232Z,4.40
2019-03-13T05:50:35.610Z,4.30
2019-03-13T05:52:37.082Z,4.30
2019-03-13T05:54:38.444Z,4.30
2019-03-13T05:56:40.894Z,4.30
2019-03-13T05:58:42.501Z,4.30
2019-03-13T06:00:43.864Z,4.20
2019-03-13T06:02:47.655Z,4.20
2019-03-13T06:04:48.576Z,4.20
2019-03-13T06:06:49.978Z,4.10
2019-03-13T06:08:51.365Z,4.10
2019-03-13T06:10:52.740Z,4.00
2019-03-13T06:12:54.119Z,4.00
2019-03-13T06:14:55.492Z,4.00
2019-03-13T06:16:56.874Z,4.00
2019-03-13T06:18:58.217Z,4.00
2019-03-13T06:20:59.910Z,4.00
2019-03-13T06:23:01.248Z,4.10
2019-03-13T06:25:02.923Z,4.20
2019-03-13T06:27:04.274Z,4.30
2019-03-13T06:29:05.743Z,4.40
2019-03-13T06:31:07.114Z,4.40
2019-03-13T06:33:08.518Z,4.50
2019-03-13T06:35:10.025Z,4.50
2019-03-13T06:37:11.431Z,4.50
2019-03-13T06:39:12.854Z,4.60
2019-03-13T06:41:14.341Z,4.60
2019-03-13T06:43:15.677Z,4.60
2019-03-13T06:45:17.026Z,4.60
2019-03-13T06:47:18.516Z,4.60
2019-03-13T06:49:19.835Z,4.70
2019-03-13T06:51:21.279Z,4.70
2019-03-13T06:53:22.844Z,4.80
2019-03-13T06:55:24.302Z,4.80
2019-03-13T06:57:25.647Z,4.90
2019-03-13T06:59:32.106Z,4.90
2019-03-13T07:01:38.256Z,4.90
2019-03-13T07:03:41.506Z,5.00
2019-03-13T07:05:47.432Z,5.10
2019-03-13T07:07:50.729Z,5.10
2019-03-13T07:09:53.966Z,5.20
2019-03-13T07:12:12.192Z,5.20
2019-03-13T07:14:24.542Z,5.20
2019-03-13T07:16:27.823Z,5.30
2019-03-13T07:18:33.792Z,5.40
2019-03-13T07:20:37.071Z,5.50
2019-03-13T07:22:42.980Z,5.60
2019-03-13T07:24:46.317Z,5.60
2019-03-13T07:26:58.568Z,5.70
2019-03-13T07:29:11.464Z,5.80
2019-03-13T07:31:23.843Z,5.90
2019-03-13T07:33:27.141Z,6.00
2019-03-13T07:35:33.057Z,6.10
2019-03-13T07:37:45.446Z,6.10
2019-03-13T07:40:00.448Z,6.20
2019-03-13T07:42:20.340Z,6.30
2019-03-13T07:44:35.620Z,6.50
2019-03-13T07:46:47.646Z,6.60
2019-03-13T07:49:05.788Z,6.40
2019-03-13T07:51:12.213Z,6.40
2019-03-13T07:53:24.671Z,6.50
2019-03-13T07:55:33.824Z,6.60
2019-03-13T07:57:40.026Z,6.60
2019-03-13T07:59:46.198Z,6.70
2019-03-13T08:02:01.644Z,6.70
2019-03-13T08:04:10.867Z,6.80
2019-03-13T08:06:14.150Z,6.80
2019-03-13T08:08:17.391Z,6.80
2019-03-13T08:10:26.593Z,6.90
2019-03-13T08:12:47.930Z,7.00
2019-03-13T08:14:51.173Z,7.00
2019-03-13T08:17:11.603Z,7.00
2019-03-13T08:19:17.523Z,7.00
2019-03-13T08:21:26.861Z,7.10
2019-03-13T08:23:30.122Z,7.10
2019-03-13T08:25:36.415Z,7.00
2019-03-13T08:27:45.639Z,7.20
2019-03-13T08:29:51.939Z,7.20
2019-03-13T08:41:36.948Z,7.40
2019-03-13T08:43:49.274Z,7.30
2019-03-13T08:45:58.467Z,7.40
2019-03-13T08:48:07.691Z,7.50
2019-03-13T08:50:11.599Z,7.60
2019-03-13T08:52:17.719Z,7.70
2019-03-13T08:54:24.047Z,7.80
2019-03-13T08:56:30.040Z,7.70
2019-03-13T08:58:49.721Z,7.70
2019-03-13T09:01:01.789Z,7.90
2019-03-13T09:03:13.985Z,8.10
2019-03-13T09:05:17.270Z,8.20
2019-03-13T09:07:32.744Z,8.30
2019-03-13T09:09:44.841Z,8.40
2019-03-13T09:11:50.892Z,8.60
2019-03-13T09:14:09.138Z,8.50
2019-03-13T09:16:15.433Z,8.50
2019-03-13T09:18:18.721Z,8.40
2019-03-13T09:20:21.931Z,8.50
2019-03-13T09:22:25.203Z,8.40
2019-03-13T09:24:28.637Z,8.20
2019-03-13T09:26:46.833Z,8.20
2019-03-13T09:28:55.998Z,8.40
2019-03-13T09:31:17.301Z,8.40
2019-03-13T09:33:29.430Z,8.60
2019-03-13T09:35:49.483Z,8.70
2019-03-13T09:37:52.725Z,8.70
2019-03-13T09:40:07.872Z,8.60
2019-03-13T09:42:11.117Z,8.70
2019-03-13T09:44:29.324Z,8.60
2019-03-13T09:46:35.258Z,8.70
2019-03-13T09:48:47.394Z,8.80
2019-03-13T09:50:56.889Z,8.90
2019-03-13T09:53:08.850Z,8.70
2019-03-13T09:55:12.283Z,8.50
2019-03-13T09:57:32.064Z,8.60
2019-03-13T09:59:43.445Z,8.60
2019-03-13T10:01:49.691Z,8.50
2019-03-13T10:04:09.530Z,8.50
2019-03-13T10:06:24.734Z,8.30
2019-03-13T10:08:30.643Z,8.30
2019-03-13T10:10:33.896Z,8.30
2019-03-13T10:12:37.193Z,8.30
2019-03-13T10:14:40.445Z,8.20
2019-03-13T10:16:43.689Z,8.30
2019-03-13T10:18:47.237Z,8.30
2019-03-13T10:21:07.256Z,8.40
2019-03-13T10:23:19.227Z,8.40
2019-03-13T10:25:39.136Z,8.50
2019-03-13T10:27:42.413Z,8.40
2019-03-13T10:29:48.571Z,8.40
2019-03-13T10:31:57.756Z,8.50
2019-03-13T10:34:09.891Z,8.50
2019-03-13T10:36:18.825Z,8.60
2019-03-13T10:38:25.245Z,8.70
2019-03-13T10:40:46.461Z,8.80
2019-03-13T10:43:04.942Z,8.70
2019-03-13T10:45:27.573Z,8.80
2019-03-13T10:47:47.371Z,8.80
2019-03-13T10:49:56.339Z,9.00
2019-03-13T10:52:02.858Z,9.10
2019-03-13T10:54:06.155Z,9.30
2019-03-13T10:56:09.399Z,9.40
2019-03-13T10:58:12.650Z,9.40
2019-03-13T11:00:19.304Z,9.30
2019-03-13T11:02:22.600Z,9.40
2019-03-13T11:04:28.768Z,9.30
2019-03-13T11:06:34.646Z,9.20
2019-03-13T11:08:54.469Z,9.30
2019-03-13T11:10:57.794Z,9.50
2019-03-13T11:13:16.102Z,9.40
2019-03-13T11:15:22.277Z,9.30
2019-03-13T11:17:42.224Z,9.40
2019-03-13T11:19:45.533Z,9.60
2019-03-13T11:21:48.790Z,9.40
2019-03-13T11:23:52.104Z,9.30
2019-03-13T11:26:04.378Z,9.30
2019-03-13T11:28:10.628Z,9.20
2019-03-13T11:30:15.548Z,9.20
2019-03-13T11:32:28.019Z,9.20
2019-03-13T11:34:40.286Z,9.30
2019-03-13T11:36:43.531Z,9.30
2019-03-13T11:38:55.657Z,9.20
2019-03-13T11:41:13.870Z,9.20
2019-03-13T11:43:22.991Z,9.20
2019-03-13T11:45:35.423Z,9.20
2019-03-13T11:47:47.792Z,9.20
2019-03-13T11:50:00.425Z,9.10
2019-03-13T11:52:20.654Z,9.30
2019-03-13T11:54:23.904Z,9.40
2019-03-13T11:56:32.879Z,9.30
2019-03-13T11:58:51.082Z,9.30
2019-03-13T12:01:07.002Z,9.20
2019-03-13T12:03:22.068Z,9.10
2019-03-13T12:05:40.317Z,9.00
2019-03-13T12:07:43.881Z,9.00
2019-03-13T12:09:53.050Z,9.00
2019-03-13T12:12:12.807Z,8.90
2019-03-13T12:14:32.562Z,8.90
2019-03-13T12:16:35.816Z,8.80
2019-03-13T12:18:54.043Z,8.70
2019-03-13T12:20:59.431Z,8.70
2019-03-13T12:23:19.268Z,8.70
2019-03-13T12:25:22.519Z,8.70
2019-03-13T12:27:49.714Z,8.60
2019-03-13T12:29:52.963Z,8.60
2019-03-13T12:32:02.167Z,8.60
2019-03-13T12:34:05.613Z,8.70
2019-03-13T12:36:08.862Z,8.70
2019-03-13T12:38:21.306Z,8.70
2019-03-13T12:40:41.015Z,8.80
2019-03-13T12:42:44.324Z,8.80
2019-03-13T12:44:47.605Z,8.80
2019-03-13T12:46:56.702Z,8.80
2019-03-13T12:49:17.964Z,8.80
2019-03-13T12:51:21.218Z,8.80
2019-03-13T12:53:39.429Z,8.80
2019-03-13T12:55:45.840Z,8.80
2019-03-13T12:57:49.079Z,8.80
2019-03-13T12:59:55.099Z,8.80
2019-03-13T13:02:04.755Z,8.80
2019-03-13T13:04:16.682Z,8.80
2019-03-13T13:06:29.164Z,8.90
2019-03-13T13:08:49.273Z,8.90
2019-03-13T13:10:58.302Z,8.90
2019-03-13T13:13:01.538Z,9.00
2019-03-13T13:15:15.278Z,8.90
2019-03-13T13:17:27.613Z,8.90
2019-03-13T13:19:28.983Z,8.90
2019-03-13T13:21:30.325Z,9.00
2019-03-13T13:23:31.688Z,9.00
2019-03-13T13:25:33.123Z,9.00
2019-03-13T13:27:34.533Z,9.00
2019-03-13T13:29:35.870Z,9.00
2019-03-13T13:31:37.248Z,9.00
2019-03-13T13:33:38.616Z,9.00
2019-03-13T13:35:39.986Z,9.00
2019-03-13T13:37:41.332Z,8.90
2019-03-13T13:39:42.696Z,8.90
2019-03-13T13:41:44.054Z,9.00
2019-03-13T13:43:45.391Z,9.00
2019-03-13T13:45:51.509Z,9.00
2019-03-13T13:47:52.824Z,9.10
2019-03-13T13:49:59.713Z,9.00
2019-03-13T13:51:57.457Z,9.00
2019-03-13T13:53:58.831Z,9.10
2019-03-13T13:56:00.179Z,9.10
2019-03-13T13:58:01.543Z,9.00
2019-03-13T14:00:08.522Z,9.10
2019-03-13T14:02:09.863Z,9.00
2019-03-13T14:04:11.245Z,9.00
2019-03-13T14:06:12.605Z,9.00
2019-03-13T14:08:13.923Z,9.00
2019-03-13T14:10:15.295Z,9.00
2019-03-13T14:12:19.894Z,9.00
2019-03-13T14:14:20.341Z,9.10
2019-03-13T14:16:21.685Z,9.10
2019-03-13T14:18:23.061Z,9.10
2019-03-13T14:20:24.429Z,9.10
2019-03-13T14:22:25.770Z,9.20
2019-03-13T14:24:27.105Z,9.20
2019-03-13T14:26:28.786Z,9.30
2019-03-13T14:28:30.128Z,9.20
2019-03-13T14:30:31.573Z,9.20
2019-03-13T14:32:32.939Z,9.20
2019-03-13T14:34:34.283Z,9.20
2019-03-13T14:36:35.630Z,9.10
2019-03-13T14:38:37.026Z,9.10
2019-03-13T14:40:38.365Z,9.10
2019-03-13T14:42:39.712Z,9.10
2019-03-13T14:44:41.079Z,9.00
2019-03-13T14:46:42.421Z,9.00
2019-03-13T14:48:43.763Z,8.90
2019-03-13T14:50:45.218Z,8.90
2019-03-13T14:52:46.656Z,9.00
2019-03-13T14:54:47.996Z,9.00
2019-03-13T14:56:49.382Z,8.90
2019-03-13T14:58:50.776Z,8.90
2019-03-13T15:00:52.101Z,8.90
2019-03-13T15:02:53.441Z,8.90
2019-03-13T15:04:54.840Z,8.90
2019-03-13T15:06:56.175Z,8.90
2019-03-13T15:08:57.517Z,8.90
2019-03-13T15:10:59.085Z,8.90
2019-03-13T15:13:00.492Z,8.90
2019-03-13T15:15:04.764Z,8.80
2019-03-13T15:17:06.184Z,8.80
2019-03-13T15:19:07.525Z,8.80
2019-03-13T15:21:08.858Z,8.80
2019-03-13T15:23:10.397Z,8.80
2019-03-13T15:25:12.337Z,8.80
2019-03-13T15:27:13.670Z,8.80
2019-03-13T15:29:15.045Z,8.80
2019-03-13T15:31:16.422Z,8.80
2019-03-13T15:33:17.769Z,8.70
2019-03-13T15:35:19.117Z,8.80
2019-03-13T15:37:20.491Z,8.80
2019-03-13T15:39:21.835Z,8.80
2019-03-13T15:41:23.202Z,8.80
2019-03-13T15:43:24.538Z,8.80
2019-03-13T15:45:33.685Z,8.80
2019-03-13T15:47:35.020Z,8.80
2019-03-13T15:49:36.362Z,8.80
2019-03-13T15:51:39.000Z,8.80
2019-03-13T15:53:40.541Z,8.80
2019-03-13T15:55:41.885Z,8.70
2019-03-13T15:57:43.245Z,8.70
2019-03-13T15:59:44.607Z,8.70
2019-03-13T16:01:45.970Z,8.70
2019-03-13T16:03:47.338Z,8.80
2019-03-13T16:05:48.710Z,8.70
2019-03-13T16:07:50.063Z,8.70
2019-03-13T16:09:51.449Z,8.70
2019-03-13T16:11:52.839Z,8.70
2019-03-13T16:13:54.207Z,8.70
2019-03-13T16:15:55.625Z,8.70
2019-03-13T16:17:57.359Z,8.60
2019-03-13T16:19:58.704Z,8.70
2019-03-13T16:22:00.194Z,8.60
2019-03-13T16:24:01.537Z,8.60
2019-03-13T16:26:02.911Z,8.60
2019-03-13T16:28:04.355Z,8.70
2019-03-13T16:30:17.157Z,8.70
2019-03-13T16:32:18.699Z,8.60
2019-03-13T16:34:20.079Z,8.60
2019-03-13T16:36:21.467Z,8.60
2019-03-13T16:38:22.809Z,8.50
2019-03-13T16:40:24.164Z,8.50
2019-03-13T16:42:25.546Z,8.50
2019-03-13T16:44:26.890Z,8.50
2019-03-13T16:46:28.229Z,8.50
2019-03-13T16:48:29.609Z,8.50
2019-03-13T16:50:35.359Z,8.50
2019-03-13T16:52:36.705Z,8.40
2019-03-13T16:54:38.071Z,8.50
2019-03-13T16:56:39.413Z,8.50
2019-03-13T16:58:40.789Z,8.50
2019-03-13T17:00:42.167Z,8.40
2019-03-13T17:02:43.695Z,8.40
2019-03-13T17:04:45.168Z,8.40
2019-03-13T17:06:46.560Z,8.40
2019-03-13T17:08:47.891Z,8.30
2019-03-13T17:10:49.230Z,8.30
2019-03-13T17:12:50.702Z,8.30
2019-03-13T17:14:52.040Z,8.20
2019-03-13T17:16:53.386Z,8.20
2019-03-13T17:18:54.806Z,8.20
2019-03-13T17:20:56.144Z,8.20
2019-03-13T17:22:57.479Z,8.20
2019-03-13T17:24:58.850Z,8.20
2019-03-13T17:27:00.217Z,8.20
2019-03-13T17:29:01.552Z,8.20
2019-03-13T17:31:03.039Z,8.20
2019-03-13T17:33:04.479Z,8.30
2019-03-13T17:35:06.020Z,8.20
2019-03-13T17:37:07.388Z,8.20
2019-03-13T17:39:08.926Z,8.10
2019-03-13T17:41:10.321Z,8.10
2019-03-13T17:43:11.654Z,8.10
2019-03-13T17:45:16.117Z,8.00
2019-03-13T17:47:17.592Z,8.00
2019-03-13T17:49:18.955Z,7.90
2019-03-13T17:51:20.336Z,7.90
2019-03-13T17:53:21.668Z,7.80
2019-03-13T17:55:26.119Z,7.80
2019-03-13T17:57:27.595Z,7.80
2019-03-13T17:59:28.939Z,7.80
2019-03-13T18:01:30.506Z,7.80
2019-03-13T18:03:32.218Z,7.80
2019-03-13T18:05:33.796Z,7.80
2019-03-13T18:07:35.139Z,7.80
2019-03-13T18:09:36.704Z,7.80
2019-03-13T18:11:38.044Z,7.80
2019-03-13T18:13:39.379Z,7.80
2019-03-13T18:15:40.790Z,7.80
2019-03-13T18:17:42.234Z,7.90
2019-03-13T18:19:43.580Z,7.90
2019-03-13T18:21:44.969Z,8.00
2019-03-13T18:23:46.305Z,8.10
2019-03-13T18:25:47.643Z,8.00
2019-03-13T18:27:49.026Z,8.10
2019-03-13T18:29:50.382Z,8.10
2019-03-13T18:31:51.723Z,8.00
2019-03-13T18:33:53.109Z,8.00
2019-03-13T18:35:54.446Z,8.00
2019-03-13T18:37:55.993Z,8.00
2019-03-13T18:39:57.375Z,8.00
2019-03-13T18:41:58.717Z,7.90
2019-03-13T18:44:00.062Z,7.90
2019-03-13T18:46:01.456Z,7.90
2019-03-13T18:48:03.463Z,7.80
2019-03-13T18:50:09.896Z,7.80
2019-03-13T18:52:11.273Z,7.80
2019-03-13T18:54:12.700Z,7.80
2019-03-13T18:56:14.039Z,7.80
2019-03-13T18:58:15.385Z,7.80
2019-03-13T19:00:29.245Z,7.80
2019-03-13T19:02:30.634Z,7.90
2019-03-13T19:04:31.980Z,7.90
2019-03-13T19:06:33.316Z,7.80
2019-03-13T19:08:34.721Z,7.80
2019-03-13T19:10:36.059Z,7.80
2019-03-13T19:12:37.500Z,7.80
2019-03-13T19:14:38.943Z,7.80
2019-03-13T19:16:40.289Z,7.80
2019-03-13T19:18:41.695Z,7.80
2019-03-13T19:20:43.034Z,7.80
2019-03-13T19:22:44.382Z,7.70
2019-03-13T19:24:45.931Z,7.80
2019-03-13T19:26:47.257Z,7.80
2019-03-13T19:28:48.609Z,7.80
2019-03-13T19:30:52.759Z,7.70
2019-03-13T19:32:54.595Z,7.70
2019-03-13T19:34:56.552Z,7.70
2019-03-13T19:36:58.177Z,7.70
2019-03-13T19:38:59.500Z,7.70
2019-03-13T19:41:00.849Z,7.80
2019-03-13T19:43:02.356Z,7.80
2019-03-13T19:45:10.358Z,7.70
2019-03-13T19:47:12.044Z,7.70
2019-03-13T19:49:13.427Z,7.70
2019-03-13T19:51:14.925Z,7.70
2019-03-13T19:53:16.317Z,7.70
2019-03-13T19:55:17.771Z,7.70
2019-03-13T19:57:19.169Z,7.60
2019-03-13T19:59:20.513Z,7.60
2019-03-13T20:01:21.871Z,7.50
2019-03-13T20:03:23.379Z,7.60
2019-03-13T20:05:24.839Z,7.60
2019-03-13T20:07:26.281Z,7.60
2019-03-13T20:09:27.665Z,7.60
2019-03-13T20:11:29.011Z,7.50
2019-03-13T20:13:30.404Z,7.50
2019-03-13T20:15:34.061Z,7.40
2019-03-13T20:17:35.400Z,7.40
2019-03-13T20:19:36.898Z,7.40
2019-03-13T20:21:38.297Z,7.40
2019-03-13T20:23:39.641Z,7.30
2019-03-13T20:25:40.978Z,7.30
2019-03-13T20:27:42.375Z,7.30
2019-03-13T20:29:43.822Z,7.20
2019-03-13T20:31:45.171Z,7.20
2019-03-13T20:33:46.967Z,7.20
2019-03-13T20:35:48.375Z,7.10
2019-03-13T20:37:49.720Z,7.00
2019-03-13T20:39:51.055Z,7.00
2019-03-13T20:41:54.286Z,7.00
2019-03-13T20:43:55.704Z,7.00
2019-03-13T20:45:57.018Z,7.00
2019-03-13T20:47:58.515Z,6.90
2019-03-13T20:50:02.816Z,6.90
2019-03-13T20:52:04.275Z,6.90
2019-03-13T20:54:05.684Z,6.80
2019-03-13T20:56:07.027Z,6.80
2019-03-13T20:58:08.367Z,6.80
2019-03-13T21:00:18.000Z,6.80
2019-03-13T21:02:19.391Z,6.80
2019-03-13T21:04:20.727Z,6.70
2019-03-13T21:06:22.074Z,6.70
2019-03-13T21:08:23.474Z,6.80
2019-03-13T21:10:24.818Z,6.80
2019-03-13T21:12:26.156Z,6.80
2019-03-13T21:14:27.555Z,6.80
2019-03-13T21:16:28.951Z,6.80
2019-03-13T21:18:30.303Z,6.80
2019-03-13T21:20:31.710Z,6.70
2019-03-13T21:22:33.058Z,6.70
2019-03-13T21:24:34.390Z,6.60
2019-03-13T21:26:35.785Z,6.60
2019-03-13T21:28:37.124Z,6.50
2019-03-13T21:30:38.564Z,6.50
2019-03-13T21:32:39.957Z,6.50
2019-03-13T21:34:41.319Z,6.40
2019-03-13T21:36:42.718Z,6.40
2019-03-13T21:38:44.058Z,6.40
2019-03-13T21:40:45.411Z,6.40
2019-03-13T21:42:47.235Z,6.40
2019-03-13T21:44:48.641Z,6.40
2019-03-13T21:46:49.987Z,6.40
2019-03-13T21:48:51.524Z,6.40
2019-03-13T21:50:52.879Z,6.30
2019-03-13T21:52:54.210Z,6.30
2019-03-13T21:54:55.614Z,6.30
2019-03-13T21:56:56.982Z,6.30
2019-03-13T21:58:58.740Z,6.30
2019-03-13T22:01:00.141Z,6.30
2019-03-13T22:03:01.479Z,6.30
2019-03-13T22:05:04.027Z,6.30
2019-03-13T22:07:05.431Z,6.30
2019-03-13T22:09:06.958Z,6.20
2019-03-13T22:11:08.303Z,6.20
2019-03-13T22:13:09.735Z,6.10
2019-03-13T22:15:16.557Z,6.20
2019-03-13T22:17:17.903Z,6.10
2019-03-13T22:19:19.382Z,6.10
2019-03-13T22:21:20.736Z,6.10
2019-03-13T22:23:22.134Z,6.10
2019-03-13T22:25:23.682Z,6.10
2019-03-13T22:27:25.021Z,6.00
2019-03-13T22:29:26.416Z,6.00
2019-03-13T22:31:27.753Z,6.00
2019-03-13T22:33:29.134Z,6.00
2019-03-13T22:35:30.530Z,6.00
2019-03-13T22:37:31.896Z,6.00
2019-03-13T22:39:33.296Z,6.00
2019-03-13T22:41:36.669Z,6.00
2019-03-13T22:43:37.879Z,6.10
2019-03-13T22:45:39.315Z,6.00
2019-03-13T22:47:42.930Z,6.10
2019-03-13T22:49:43.895Z,6.10
2019-03-13T22:51:45.276Z,6.10
2019-03-13T22:53:46.615Z,6.10
2019-03-13T22:55:48.433Z,6.10
2019-03-13T22:57:49.778Z,6.10
2019-03-13T22:59:51.126Z,6.20
2019-03-13T23:01:52.514Z,6.20
2019-03-13T23:03:54.607Z,6.20
2019-03-13T23:05:56.409Z,6.30
2019-03-13T23:07:57.804Z,6.30
2019-03-13T23:09:59.211Z,6.30
2019-03-13T23:12:00.663Z,6.30
2019-03-13T23:14:02.293Z,6.30
2019-03-13T23:16:03.737Z,6.30
2019-03-13T23:18:05.191Z,6.30
2019-03-13T23:20:06.747Z,6.30
2019-03-13T23:22:08.094Z,6.30
2019-03-13T23:24:09.446Z,6.30
2019-03-13T23:26:10.871Z,6.30
2019-03-13T23:28:12.208Z,6.30
2019-03-13T23:30:13.604Z,6.40
2019-03-13T23:32:14.944Z,6.30
2019-03-13T23:34:16.390Z,6.30
2019-03-13T23:36:18.075Z,6.30
2019-03-13T23:38:19.423Z,6.30
2019-03-13T23:40:20.764Z,6.30
2019-03-13T23:42:22.162Z,6.30
2019-03-13T23:44:23.506Z,6.30
2019-03-13T23:46:24.851Z,6.30
2019-03-13T23:48:26.240Z,6.30
2019-03-13T23:50:27.886Z,6.30
2019-03-13T23:52:29.240Z,6.30
2019-03-13T23:54:30.639Z,6.20
2019-03-13T23:56:31.976Z,6.20
2019-03-13T23:58:33.312Z,6.20
